TAF Text Data
IDs:
Format:
Raw Decoded Include METAR

Data at: 0209 UTC 23 Sep 2018

KSDL 230153Z 18004KT 10SM CLR 35/09 A2984 RMK AO2 SLP077 T03500094

KSDL 222320Z 2300/2324 VRB03KT P6SM SKC
  FM231600 10008KT P6SM SKC
  FM232000 14005KT P6SM FEW110
  FM232300 21004KT P6SM FEW110